Time;durP1;ratioP1;P1;durP2;ratioP2;P2;SDS_P1;SDS_P2;PMS_P1;PMS_P2;Temp;Humidity;BMP_temperature;BMP_pressure;BME280_temperature;BME280_humidity;BME280_pressure;Samples;Min_cycle;Max_cycle;Signal;HPM_P1;HPM_P2
2021/05/07 00:02:26;;;;;;;2.37;0.93;;;8.30;99.90;;;8.60;100.00;94202.00;2400732;57;26116;-62
2021/05/07 00:05:14;;;;;;;4.00;0.93;;;8.10;99.90;;;8.41;100.00;94208.00;2187599;58;26591;-62
2021/05/07 00:08:00;;;;;;;4.83;0.87;;;8.10;99.90;;;8.37;100.00;94225.00;2400798;57;26141;-62
2021/05/07 00:10:47;;;;;;;1.33;0.80;;;8.10;99.90;;;8.30;100.00;94228.00;2187652;58;26116;-62
2021/05/07 00:13:35;;;;;;;1.57;0.87;;;8.10;99.90;;;8.35;100.00;94228.00;2400874;58;26654;-62
2021/05/07 00:16:21;;;;;;;2.13;0.70;;;8.10;99.90;;;8.38;100.00;94222.00;2187876;58;26226;-62
2021/05/07 00:19:08;;;;;;;2.83;0.60;;;8.00;99.90;;;8.25;100.00;94238.00;2400684;57;26600;-62
2021/05/07 00:21:54;;;;;;;0.83;0.70;;;7.90;99.90;;;8.13;100.00;94228.00;2188036;58;26204;-62
2021/05/07 00:24:40;;;;;;;2.30;0.50;;;7.80;99.90;;;8.06;100.00;94236.00;2400709;58;26225;-62
2021/05/07 00:27:26;;;;;;;0.93;0.50;;;7.70;99.90;;;8.03;100.00;94220.00;2187870;58;26680;-62
2021/05/07 00:30:16;;;;;;;1.40;0.70;;;7.70;99.90;;;7.92;100.00;94225.00;2187714;58;26681;-62
2021/05/07 00:33:02;;;;;;;1.90;0.50;;;7.60;99.90;;;7.90;100.00;94229.00;2400832;57;26636;-62
2021/05/07 00:35:50;;;;;;;0.30;0.30;;;7.70;99.90;;;7.99;100.00;94216.00;2187391;58;26634;-62
2021/05/07 00:38:36;;;;;;;0.90;0.40;;;7.70;99.90;;;7.96;100.00;94219.00;2400982;57;26232;-62
2021/05/07 00:41:22;;;;;;;2.23;0.57;;;7.70;99.90;;;7.99;100.00;94219.00;2187662;58;26120;-61
2021/05/07 00:44:09;;;;;;;1.33;0.63;;;7.70;99.90;;;8.03;100.00;94217.00;2401130;57;27701;-62
2021/05/07 00:46:57;;;;;;;0.67;0.53;;;7.70;99.90;;;7.95;100.00;94205.00;2187958;58;26288;-62
2021/05/07 00:49:43;;;;;;;0.70;0.70;;;7.70;99.90;;;8.01;100.00;94191.00;2400138;57;26495;-62
2021/05/07 00:52:33;;;;;;;1.17;0.80;;;7.70;99.90;;;7.99;100.00;94190.00;2187720;58;26281;-62
2021/05/07 00:55:19;;;;;;;2.20;0.77;;;7.70;99.90;;;7.97;100.00;94182.00;2401188;57;27228;-62
2021/05/07 00:58:06;;;;;;;1.53;0.70;;;7.80;99.90;;;8.13;100.00;94179.00;2187584;58;26179;-62
2021/05/07 01:00:53;;;;;;;2.10;0.50;;;7.90;99.90;;;8.08;100.00;94168.00;2187590;58;26144;-62
2021/05/07 01:03:39;;;;;;;1.33;0.70;;;7.90;99.90;;;8.17;100.00;94175.00;2401106;57;26120;-62
2021/05/07 01:06:26;;;;;;;1.07;0.50;;;7.80;99.90;;;8.03;100.00;94176.00;2187362;58;26175;-62
2021/05/07 01:09:12;;;;;;;1.13;0.63;;;7.80;99.90;;;8.04;100.00;94179.00;2401087;58;26261;-62
2021/05/07 01:11:59;;;;;;;1.70;0.80;;;7.90;99.90;;;8.18;100.00;94168.00;2187595;58;26658;-62
2021/05/07 01:15:01;;;;;;;0.77;0.60;;;8.00;99.90;;;8.25;100.00;94169.00;2400553;58;26207;-62
2021/05/07 01:17:50;;;;;;;2.50;0.70;;;8.00;99.90;;;8.26;100.00;94166.00;2400528;57;26164;-62
2021/05/07 01:20:37;;;;;;;1.00;0.70;;;8.10;99.90;;;8.33;100.00;94162.00;2187782;58;26131;-62
2021/05/07 01:23:24;;;;;;;0.50;0.50;;;8.10;99.90;;;8.30;100.00;94159.00;2401118;57;26169;-62
2021/05/07 01:26:10;;;;;;;1.83;0.83;;;7.90;99.90;;;8.11;100.00;94157.00;2187557;58;25617;-62
2021/05/07 01:28:57;;;;;;;1.13;0.80;;;7.90;99.90;;;8.09;100.00;94160.00;2187995;58;26287;-62
2021/05/07 01:31:46;;;;;;;1.43;0.80;;;7.90;99.90;;;8.03;100.00;94170.00;2400529;57;26630;-62
2021/05/07 01:34:32;;;;;;;1.03;0.70;;;7.80;99.90;;;8.00;100.00;94182.00;2187507;58;26155;-62
2021/05/07 01:37:19;;;;;;;2.93;1.00;;;7.80;99.90;;;8.01;100.00;94182.00;2400928;58;26550;-62
2021/05/07 01:40:15;;;;;;;1.80;0.77;;;8.00;99.90;;;8.22;100.00;94177.00;2187604;58;26611;-62
2021/05/07 01:43:02;;;;;;;2.20;0.90;;;8.00;99.90;;;8.26;100.00;94189.00;2187583;58;26118;-62
2021/05/07 01:45:49;;;;;;;1.67;0.90;;;7.90;99.90;;;8.16;100.00;94205.00;2187732;58;26186;-62
2021/05/07 01:48:36;;;;;;;1.33;0.80;;;7.90;99.90;;;8.19;100.00;94212.00;2399610;57;26160;-62
2021/05/07 01:51:22;;;;;;;1.43;0.57;;;7.90;99.90;;;8.07;100.00;94214.00;2187011;58;26200;-62
2021/05/07 01:54:09;;;;;;;1.37;0.60;;;7.90;99.90;;;8.18;100.00;94205.00;2400793;57;26247;-62
2021/05/07 01:56:55;;;;;;;2.13;0.80;;;7.90;99.90;;;8.17;100.00;94208.00;2187574;58;26196;-62
2021/05/07 01:59:41;;;;;;;1.33;0.93;;;8.00;99.90;;;8.25;100.00;94201.00;2400670;58;26181;-62
2021/05/07 02:02:29;;;;;;;2.30;0.70;;;8.10;99.90;;;8.37;100.00;94204.00;2187928;58;26531;-62
2021/05/07 02:05:18;;;;;;;2.00;0.90;;;8.10;99.90;;;8.38;100.00;94206.00;2400414;57;26614;-62
2021/05/07 02:08:07;;;;;;;2.03;0.80;;;8.10;99.90;;;8.35;100.00;94211.00;2187894;58;26172;-62
2021/05/07 02:10:53;;;;;;;2.77;0.80;;;8.10;99.90;;;8.40;100.00;94210.00;2400596;58;26200;-62
2021/05/07 02:13:39;;;;;;;0.73;0.50;;;8.20;99.90;;;8.40;100.00;94220.00;2400762;58;26221;-62
2021/05/07 02:16:28;;;;;;;2.37;0.90;;;8.10;99.90;;;8.35;100.00;94217.00;2187620;58;26225;-62
2021/05/07 02:19:14;;;;;;;2.07;0.67;;;8.20;99.90;;;8.45;100.00;94213.00;2400805;57;26614;-62
2021/05/07 02:22:00;;;;;;;2.67;0.70;;;8.10;99.90;;;8.36;100.00;94213.00;2187714;58;26185;-62
2021/05/07 02:24:47;;;;;;;1.73;0.73;;;8.10;99.90;;;8.37;100.00;94223.00;2400527;58;26614;-62
2021/05/07 02:27:33;;;;;;;1.50;0.63;;;7.90;99.90;;;8.16;100.00;94226.00;2187649;58;26249;-62
2021/05/07 02:30:24;;;;;;;0.90;0.70;;;7.90;99.90;;;8.15;100.00;94229.00;2399976;58;26243;-62
2021/05/07 02:33:11;;;;;;;1.30;0.60;;;7.90;99.90;;;8.24;100.00;94228.00;2187948;58;26200;-62
2021/05/07 02:35:57;;;;;;;0.60;0.50;;;7.90;99.90;;;8.25;100.00;94238.00;2400307;57;26363;-62
2021/05/07 02:38:44;;;;;;;1.67;0.90;;;7.90;99.90;;;8.24;100.00;94233.00;2187828;58;26586;-62
2021/05/07 02:44:30;;;;;;;1.57;0.70;;;7.90;99.90;;;8.19;100.00;94214.00;2206932;57;33527;-61
2021/05/07 02:47:16;;;;;;;1.40;0.70;;;7.80;99.90;;;8.06;100.00;94225.00;2230222;58;26179;-64
2021/05/07 02:50:04;;;;;;;1.70;0.80;;;7.80;99.90;;;7.98;100.00;94215.00;2489150;55;26140;-59
2021/05/07 02:52:51;;;;;;;1.90;0.70;;;7.80;99.90;;;8.00;100.00;94217.00;2285890;56;26100;-59
2021/05/07 02:55:37;;;;;;;1.73;0.90;;;7.70;99.90;;;7.96;100.00;94216.00;2286317;56;26509;-60
2021/05/07 02:58:23;;;;;;;1.23;0.83;;;7.70;99.90;;;7.89;100.00;94204.00;2519976;55;26148;-59
2021/05/07 03:01:10;;;;;;;1.30;0.70;;;7.50;99.90;;;7.58;100.00;94202.00;2285959;56;26660;-59
2021/05/07 03:03:56;;;;;;;1.70;0.73;;;7.40;99.90;;;7.49;100.00;94195.00;2519810;55;26652;-60
2021/05/07 03:06:43;;;;;;;1.70;0.90;;;7.30;99.90;;;7.45;100.00;94203.00;2285674;56;26132;-59
2021/05/07 03:09:29;;;;;;;4.07;0.77;;;7.10;99.90;;;7.24;100.00;94200.00;2520080;55;26578;-59
2021/05/07 03:12:15;;;;;;;1.63;0.67;;;7.10;99.90;;;7.30;100.00;94195.00;2285872;56;26152;-59
2021/05/07 03:15:03;;;;;;;1.17;0.70;;;7.10;99.90;;;7.26;100.00;94201.00;2286239;56;26534;-59
2021/05/07 03:17:52;;;;;;;0.87;0.80;;;7.00;99.90;;;7.06;100.00;94192.00;2519793;55;26868;-59
2021/05/07 03:20:39;;;;;;;1.37;0.90;;;7.00;99.90;;;7.09;100.00;94191.00;2285462;56;26621;-59
2021/05/07 03:23:25;;;;;;;1.13;0.80;;;6.90;99.90;;;7.04;100.00;94199.00;2519823;55;26077;-59
2021/05/07 03:26:12;;;;;;;1.27;0.70;;;6.90;99.90;;;7.14;100.00;94205.00;2284889;56;26617;-59
2021/05/07 03:28:58;;;;;;;3.30;0.90;;;7.00;99.90;;;7.30;100.00;94203.00;2281425;56;26162;-59
2021/05/07 03:31:45;;;;;;;1.93;0.93;;;7.00;99.90;;;7.18;100.00;94196.00;2258710;56;26213;-59
2021/05/07 03:34:31;;;;;;;2.23;0.97;;;7.00;99.90;;;7.21;100.00;94201.00;2258404;56;26147;-59
2021/05/07 03:37:17;;;;;;;1.20;0.70;;;7.00;99.90;;;7.15;100.00;94206.00;2259020;56;26202;-59
2021/05/07 03:40:06;;;;;;;2.83;1.10;;;6.90;99.90;;;7.09;100.00;94212.00;2260146;56;26114;-59
2021/05/07 03:42:53;;;;;;;1.60;0.87;;;7.00;99.90;;;7.14;100.00;94211.00;2243153;56;26110;-59
2021/05/07 03:45:39;;;;;;;2.10;0.90;;;7.00;99.90;;;7.16;100.00;94210.00;2230322;57;26166;-59
2021/05/07 03:48:26;;;;;;;1.20;0.70;;;6.90;99.90;;;7.09;100.00;94215.00;2452576;56;26177;-59
2021/05/07 03:51:12;;;;;;;4.43;1.10;;;7.00;99.90;;;7.14;100.00;94211.00;2230273;57;26189;-59
2021/05/07 03:53:58;;;;;;;2.77;0.87;;;6.90;99.90;;;7.03;100.00;94210.00;2452337;56;26668;-59
2021/05/07 03:56:45;;;;;;;12.83;8.00;;;6.80;99.90;;;7.09;100.00;94213.00;2229480;57;26530;-59
2021/05/07 03:59:31;;;;;;;12.50;6.07;;;6.80;99.90;;;6.90;100.00;94219.00;2451477;56;26098;-59
2021/05/07 04:02:18;;;;;;;3.40;1.20;;;6.70;99.90;;;6.79;100.00;94211.00;2229588;57;26616;-59
2021/05/07 04:05:06;;;;;;;1.87;0.83;;;6.60;99.90;;;6.76;100.00;94212.00;2229702;57;26634;-59
2021/05/07 04:08:00;;;;;;;1.67;0.80;;;6.70;99.90;;;6.85;100.00;94218.00;2451484;56;26571;-60
2021/05/07 04:10:50;;;;;;;3.70;1.20;;;6.80;99.90;;;6.95;100.00;94219.00;2451286;56;26130;-59
2021/05/07 04:13:40;;;;;;;1.30;0.97;;;6.90;99.90;;;7.15;100.00;94222.00;2229787;57;26544;-59
2021/05/07 04:16:26;;;;;;;2.17;1.20;;;7.00;99.90;;;7.32;100.00;94224.00;2451568;56;26604;-59
2021/05/07 04:19:13;;;;;;;1.37;1.00;;;7.10;99.90;;;7.41;100.00;94212.00;2234161;56;26603;-59
2021/05/07 04:21:59;;;;;;;2.30;1.00;;;7.20;99.90;;;7.49;100.00;94221.00;2234312;56;26150;-59
2021/05/07 04:24:45;;;;;;;1.50;1.10;;;7.20;99.90;;;7.48;100.00;94221.00;2460551;55;26199;-59
2021/05/07 04:27:32;;;;;;;2.27;1.50;;;7.20;99.90;;;7.50;100.00;94234.00;2259217;56;26095;-59
2021/05/07 04:30:20;;;;;;;3.13;2.30;;;7.30;99.90;;;7.65;100.00;94225.00;2487610;55;26703;-59
2021/05/07 04:33:07;;;;;;;7.43;5.30;;;7.30;99.90;;;7.67;100.00;94222.00;2259878;56;26150;-59
2021/05/07 04:35:53;;;;;;;5.90;4.47;;;7.30;99.90;;;7.69;100.00;94218.00;2486908;55;26199;-59
2021/05/07 04:38:39;;;;;;;2.87;2.03;;;7.30;99.90;;;7.73;100.00;94224.00;2259681;56;26139;-60
2021/05/07 04:41:25;;;;;;;3.00;1.40;;;7.30;99.90;;;7.72;100.00;94220.00;2487274;55;26200;-59
2021/05/07 04:44:12;;;;;;;2.60;1.00;;;7.30;99.90;;;7.73;100.00;94224.00;2258390;56;26155;-59
2021/05/07 04:46:59;;;;;;;3.50;1.50;;;7.30;99.90;;;7.82;100.00;94218.00;2263848;56;26158;-59
2021/05/07 04:49:46;;;;;;;2.37;1.47;;;7.30;99.90;;;7.87;100.00;94215.00;2492521;55;26078;-59
2021/05/07 04:52:32;;;;;;;2.47;1.70;;;7.40;99.90;;;7.97;100.00;94219.00;2263853;56;26131;-59
2021/05/07 04:55:19;;;;;;;1.93;1.47;;;7.40;99.90;;;7.93;100.00;94222.00;2493009;55;26621;-59
2021/05/07 04:58:05;;;;;;;3.40;1.30;;;7.50;99.90;;;7.94;100.00;94229.00;2264174;56;26283;-60
2021/05/07 05:00:51;;;;;;;2.27;1.30;;;7.60;99.90;;;8.18;100.00;94232.00;2492581;55;26856;-59
2021/05/07 05:03:38;;;;;;;4.10;1.50;;;7.70;99.90;;;8.26;100.00;94239.00;2264384;56;26708;-59
2021/05/07 05:06:24;;;;;;;2.20;1.10;;;7.60;99.90;;;8.03;100.00;94246.00;2492576;55;26327;-60
2021/05/07 05:09:10;;;;;;;1.70;1.17;;;7.50;99.90;;;7.84;100.00;94260.00;2264385;56;26552;-59
2021/05/07 05:11:57;;;;;;;1.80;0.90;;;7.20;99.90;;;7.48;100.00;94268.00;2263966;56;26143;-59
2021/05/07 05:14:43;;;;;;;3.03;1.00;;;7.00;99.90;;;7.27;100.00;94291.00;2493392;55;26123;-59
2021/05/07 05:17:30;;;;;;;4.70;1.30;;;6.70;99.90;;;7.02;100.00;94296.00;2264123;56;26588;-59
2021/05/07 05:20:17;;;;;;;2.47;0.97;;;6.70;99.90;;;7.00;100.00;94321.00;2492822;55;26687;-59
2021/05/07 05:23:03;;;;;;;2.50;1.30;;;6.60;99.90;;;6.99;100.00;94334.00;2264431;56;26585;-59
2021/05/07 05:25:49;;;;;;;2.10;1.40;;;6.50;99.90;;;6.85;100.00;94335.00;2492618;55;26290;-59
2021/05/07 05:28:37;;;;;;;2.23;1.40;;;6.60;99.90;;;6.89;100.00;94341.00;2264284;56;26098;-59
2021/05/07 05:31:23;;;;;;;1.97;0.97;;;6.50;99.90;;;6.84;100.00;94336.00;2493302;55;26146;-59
2021/05/07 05:34:10;;;;;;;3.40;1.40;;;6.50;99.90;;;6.78;100.00;94347.00;2264051;56;26091;-59
2021/05/07 05:36:56;;;;;;;0.83;0.40;;;6.50;99.90;;;6.86;100.00;94369.00;2264065;56;26529;-59
2021/05/07 05:39:42;;;;;;;0.90;0.60;;;6.50;99.90;;;6.78;100.00;94368.00;2493247;55;26183;-59
2021/05/07 05:42:29;;;;;;;0.70;0.53;;;6.50;99.90;;;6.79;100.00;94370.00;2263509;56;26621;-59
2021/05/07 05:45:17;;;;;;;1.23;0.50;;;6.50;99.90;;;6.91;100.00;94366.00;2493338;55;26111;-59
2021/05/07 05:48:07;;;;;;;0.93;0.80;;;6.60;99.90;;;7.02;100.00;94378.00;2264231;56;26256;-59
2021/05/07 05:50:54;;;;;;;1.17;0.60;;;6.80;99.90;;;7.31;100.00;94384.00;2492067;55;26140;-59
2021/05/07 05:53:41;;;;;;;0.47;0.47;;;7.00;99.90;;;7.63;100.00;94383.00;2264294;56;26159;-59
2021/05/07 05:56:27;;;;;;;1.87;1.20;;;7.00;99.90;;;7.66;100.00;94375.00;2492939;55;26139;-59
2021/05/07 05:59:13;;;;;;;1.50;1.07;;;7.10;99.90;;;7.76;100.00;94388.00;2264092;56;26114;-59
2021/05/07 06:02:00;;;;;;;1.50;1.20;;;7.20;99.90;;;7.85;100.00;94404.00;2492917;55;26628;-59
2021/05/07 06:04:46;;;;;;;1.20;0.80;;;7.30;99.90;;;8.03;100.00;94401.00;2264250;56;26138;-60
2021/05/07 06:07:33;;;;;;;2.27;2.07;;;7.30;99.90;;;7.83;100.00;94376.00;2492466;55;26975;-59
2021/05/07 06:10:20;;;;;;;2.67;2.10;;;6.90;99.90;;;7.34;100.00;94375.00;2493038;55;26090;-59
2021/05/07 06:13:06;;;;;;;2.00;0.80;;;6.80;99.90;;;7.27;100.00;94398.00;2263875;56;26616;-59
2021/05/07 06:15:53;;;;;;;3.00;1.03;;;6.90;99.90;;;7.37;100.00;94373.00;2492375;55;26155;-59
2021/05/07 06:18:39;;;;;;;2.10;1.20;;;6.80;99.90;;;7.27;100.00;94394.00;2263971;56;26680;-59
2021/05/07 06:21:25;;;;;;;2.83;0.93;;;6.70;99.90;;;7.17;100.00;94397.00;2492466;55;26580;-59
2021/05/07 06:24:12;;;;;;;3.67;1.30;;;6.50;99.90;;;6.85;100.00;94413.00;2263815;56;26098;-59
2021/05/07 06:26:58;;;;;;;2.87;1.40;;;6.40;99.90;;;6.72;100.00;94394.00;2492862;55;26123;-59
2021/05/07 06:29:44;;;;;;;1.63;1.10;;;6.40;99.90;;;6.72;100.00;94398.00;2263985;56;26600;-60
2021/05/07 06:32:31;;;;;;;2.30;0.90;;;6.50;99.90;;;6.86;100.00;94384.00;2263998;56;26589;-59
2021/05/07 06:35:17;;;;;;;3.67;1.67;;;6.70;99.90;;;7.20;100.00;94387.00;2492754;55;26182;-59
2021/05/07 06:38:09;;;;;;;3.70;1.50;;;7.10;99.90;;;8.05;100.00;94377.00;2262928;56;26155;-59
2021/05/07 06:40:55;;;;;;;2.67;1.57;;;7.70;99.90;;;9.02;100.00;94361.00;2492071;55;26111;-59
2021/05/07 06:43:41;;;;;;;1.07;0.60;;;7.80;99.90;;;8.77;100.00;94355.00;2491910;55;26138;-59
2021/05/07 06:46:28;;;;;;;1.17;0.70;;;8.00;99.90;;;9.29;100.00;94344.00;2263148;56;26147;-59
2021/05/07 06:49:15;;;;;;;1.00;0.50;;;9.50;99.90;;;11.87;100.00;94331.00;2262404;56;26139;-60
2021/05/07 06:52:01;;;;;;;2.07;0.70;;;9.40;99.90;;;10.37;100.00;94335.00;2262704;56;26672;-60
2021/05/07 06:54:47;;;;;;;0.60;0.60;;;8.30;99.90;;;8.73;100.00;94344.00;2262891;56;26994;-59
2021/05/07 06:57:34;;;;;;;1.87;0.60;;;8.00;99.90;;;8.37;100.00;94336.00;2262349;56;26238;-60
2021/05/07 07:00:22;;;;;;;1.80;0.70;;;7.90;99.90;;;8.39;100.00;94333.00;2262687;56;26210;-59
2021/05/07 07:03:08;;;;;;;1.93;0.70;;;7.90;99.90;;;8.38;100.00;94347.00;2264134;56;26114;-59
2021/05/07 07:05:54;;;;;;;0.70;0.70;;;8.00;99.90;;;8.73;100.00;94333.00;2492049;55;26095;-59
2021/05/07 07:08:40;;;;;;;0.87;0.70;;;9.40;99.90;;;11.12;100.00;94312.00;2264297;56;26095;-59
2021/05/07 07:11:27;;;;;;;24.90;15.87;;;9.60;99.90;;;11.35;100.00;94317.00;2492771;55;26541;-59
2021/05/07 07:14:14;;;;;;;2.50;1.40;;;9.10;99.90;;;9.96;100.00;94327.00;2239121;56;26129;-59
2021/05/07 07:17:00;;;;;;;2.10;1.20;;;9.20;99.90;;;10.30;100.00;94323.00;2462776;56;26100;-59
2021/05/07 07:19:46;;;;;;;1.70;0.77;;;9.70;99.90;;;10.85;100.00;94315.00;2238780;56;26100;-59
2021/05/07 07:22:32;;;;;;;2.93;1.00;;;9.20;99.90;;;9.99;100.00;94322.00;2238475;56;26168;-59
2021/05/07 07:25:19;;;;;;;2.57;1.00;;;8.90;99.90;;;9.37;100.00;94331.00;2462690;56;26242;-59
2021/05/07 07:28:06;;;;;;;1.90;0.87;;;8.70;99.90;;;9.15;100.00;94330.00;2238688;56;26648;-59
2021/05/07 07:30:52;;;;;;;1.63;0.90;;;8.90;99.90;;;9.60;100.00;94328.00;2461820;55;26570;-59
2021/05/07 07:33:39;;;;;;;3.53;0.90;;;9.00;99.90;;;9.62;100.00;94326.00;2238391;56;26187;-59
2021/05/07 07:36:25;;;;;;;3.93;1.63;;;9.10;99.90;;;9.74;100.00;94325.00;2461360;56;26222;-60
2021/05/07 07:39:12;;;;;;;4.40;1.87;;;9.00;99.90;;;9.80;100.00;94335.00;2238611;56;26120;-59
2021/05/07 07:41:59;;;;;;;4.40;2.23;;;9.70;99.90;;;10.86;100.00;94338.00;2461640;56;26565;-59
2021/05/07 07:44:45;;;;;;;3.37;1.43;;;9.20;99.90;;;10.07;100.00;94321.00;2238899;56;26183;-59
2021/05/07 07:47:32;;;;;;;1.40;0.90;;;8.90;99.90;;;9.48;100.00;94291.00;2462152;56;26180;-60
2021/05/07 07:50:18;;;;;;;3.50;1.50;;;8.60;99.90;;;9.23;100.00;94301.00;2238824;56;26585;-59
2021/05/07 07:53:05;;;;;;;4.47;1.33;;;8.50;99.90;;;9.08;100.00;94314.00;2239145;56;26637;-59
2021/05/07 07:55:52;;;;;;;3.43;1.00;;;9.30;99.90;;;10.76;100.00;94303.00;2462320;56;26519;-59
2021/05/07 07:58:38;;;;;;;3.00;1.27;;;11.00;99.90;;;14.66;100.00;94289.00;2239378;56;26653;-60
2021/05/07 08:01:25;;;;;;;2.50;1.00;;;12.80;99.90;;;16.96;100.00;94281.00;2462299;56;27748;-59
2021/05/07 08:04:11;;;;;;;1.52;0.93;;;15.30;99.90;;;19.56;100.00;94278.00;2238869;56;26124;-58
2021/05/07 08:06:59;;;;;;;2.20;1.00;;;13.60;99.90;;;15.70;100.00;94284.00;2462498;56;26628;-60
2021/05/07 08:09:46;;;;;;;2.58;1.10;;;13.30;99.90;;;16.55;100.00;94285.00;2239034;56;26626;-59
2021/05/07 08:12:32;;;;;;;2.37;1.10;;;13.60;99.90;;;16.58;100.00;94290.00;2460625;56;26113;-60
2021/05/07 08:15:20;;;;;;;2.95;0.93;;;14.20;99.90;;;16.68;100.00;94293.00;2234363;57;26105;-59
2021/05/07 08:18:07;;;;;;;2.58;1.05;;;14.20;99.90;;;16.96;100.00;94298.00;2239326;57;27134;-59
2021/05/07 08:20:53;;;;;;;3.10;1.00;;;14.50;99.90;;;17.52;100.00;94287.00;2462188;56;26185;-60
2021/05/07 08:23:39;;;;;;;2.25;1.00;;;13.60;99.90;;;15.79;100.00;94287.00;2239274;57;26124;-59
2021/05/07 08:26:26;;;;;;;2.20;1.10;;;12.60;99.90;;;13.64;100.00;94298.00;2462399;56;26155;-59
2021/05/07 08:29:12;;;;;;;3.33;0.83;;;11.70;99.90;;;12.54;100.00;94292.00;2239013;57;26628;-59
2021/05/07 08:31:58;;;;;;;6.07;1.40;;;11.50;99.90;;;12.18;100.00;94306.00;2462780;56;26675;-59
2021/05/07 08:34:45;;;;;;;3.77;1.30;;;10.60;99.90;;;10.99;100.00;94307.00;2238934;57;26108;-60
2021/05/07 08:37:31;;;;;;;2.53;1.40;;;10.20;99.90;;;10.66;100.00;94343.00;2462590;56;26212;-59
2021/05/07 08:40:19;;;;;;;2.73;1.13;;;9.50;99.90;;;9.72;100.00;94348.00;2214845;57;26762;-59
2021/05/07 08:43:09;;;;;;;3.60;1.37;;;8.00;99.90;;;8.09;100.00;94358.00;2214381;57;26133;-59
2021/05/07 08:45:55;;;;;;;2.03;0.90;;;7.10;99.90;;;7.40;100.00;94401.00;2235494;56;26114;-59
2021/05/07 08:48:44;;;;;;;0.77;0.70;;;6.60;99.90;;;6.91;100.00;94454.00;2235687;56;26089;-59
2021/05/07 08:51:30;;;;;;;2.43;1.20;;;6.20;99.90;;;6.47;100.00;94454.00;2457858;55;26733;-60
2021/05/07 08:54:17;;;;;;;1.90;1.63;;;5.90;99.90;;;6.20;100.00;94466.00;2235695;56;26115;-60
2021/05/07 08:57:04;;;;;;;1.50;1.37;;;5.80;99.90;;;6.10;100.00;94475.00;2458416;55;26078;-59
2021/05/07 08:59:50;;;;;;;3.00;1.50;;;5.80;99.90;;;6.24;100.00;94487.00;2235055;56;26663;-59
2021/05/07 09:02:37;;;;;;;1.80;1.50;;;5.80;99.90;;;6.31;100.00;94495.00;2458058;55;26153;-59
2021/05/07 09:05:32;;;;;;;2.23;1.50;;;5.90;99.90;;;6.38;100.00;94525.00;2235493;56;26142;-59
2021/05/07 09:08:29;;;;;;;1.37;1.17;;;5.70;99.90;;;6.08;100.00;94527.00;2458235;55;26781;-59
2021/05/07 09:11:15;;;;;;;4.00;2.47;;;5.70;99.90;;;6.20;100.00;94536.00;2457523;55;27053;-59
2021/05/07 09:14:05;;;;;;;1.63;1.00;;;5.70;99.90;;;6.19;100.00;94534.00;2235644;56;26147;-59
2021/05/07 09:16:56;;;;;;;2.23;1.10;;;5.70;99.90;;;6.22;100.00;94568.00;2458221;55;26154;-59
2021/05/07 09:19:42;;;;;;;2.23;0.93;;;5.70;99.90;;;6.24;100.00;94594.00;2235139;56;26163;-60
2021/05/07 09:22:28;;;;;;;1.33;0.90;;;5.60;99.90;;;6.15;100.00;94601.00;2235199;56;26651;-60
2021/05/07 09:25:18;;;;;;;2.60;1.20;;;5.20;99.90;;;5.52;100.00;94600.00;2458437;55;26584;-59
2021/05/07 09:28:13;;;;;;;2.70;1.40;;;5.10;99.90;;;5.50;100.00;94600.00;2234775;56;26126;-60
2021/05/07 09:31:13;;;;;;;2.67;2.23;;;5.20;99.90;;;5.52;100.00;94601.00;2235181;56;26134;-62
2021/05/07 09:34:07;;;;;;;2.33;1.80;;;5.30;99.90;;;5.81;100.00;94613.00;2458141;55;26198;-61
2021/05/07 09:36:53;;;;;;;2.60;2.00;;;5.50;99.90;;;6.14;100.00;94609.00;2234947;56;26138;-59
2021/05/07 09:39:40;;;;;;;2.97;1.30;;;5.60;99.90;;;6.04;100.00;94620.00;2457090;55;26130;-59
2021/05/07 09:42:26;;;;;;;0.97;0.73;;;5.40;99.90;;;5.91;100.00;94613.00;2234459;56;26146;-59
2021/05/07 09:45:26;;;;;;;1.00;0.90;;;5.40;99.90;;;6.04;100.00;94609.00;2234208;56;26146;-59
2021/05/07 09:48:22;;;;;;;2.03;1.00;;;5.70;99.90;;;6.47;100.00;94624.00;2235300;56;26723;-59
2021/05/07 09:51:09;;;;;;;0.70;0.70;;;6.20;99.90;;;7.17;100.00;94628.00;2234798;56;26170;-59
2021/05/07 09:54:09;;;;;;;1.63;0.80;;;6.70;99.90;;;8.03;100.00;94626.00;2458382;55;26151;-59
2021/05/07 09:56:56;;;;;;;0.93;0.53;;;7.20;99.90;;;8.79;100.00;94620.00;2457701;55;26150;-62
2021/05/07 09:59:43;;;;;;;1.10;1.00;;;7.50;99.90;;;9.12;100.00;94628.00;2235208;56;26619;-62
2021/05/07 10:02:30;;;;;;;1.47;0.80;;;7.80;99.90;;;9.18;100.00;94639.00;2458236;55;26111;-60
2021/05/07 10:05:17;;;;;;;1.37;0.97;;;7.50;99.90;;;8.51;100.00;94646.00;2235210;56;26090;-62
2021/05/07 10:08:04;;;;;;;1.77;0.77;;;6.90;99.90;;;7.70;100.00;94663.00;2235185;56;26167;-59
2021/05/07 10:10:57;;;;;;;1.53;1.30;;;6.90;99.90;;;7.74;100.00;94671.00;2458177;55;26146;-59
2021/05/07 10:13:44;;;;;;;0.37;0.37;;;6.90;99.90;;;7.91;100.00;94677.00;2458289;55;26098;-59
2021/05/07 10:16:31;;;;;;;1.23;1.10;;;6.50;99.90;;;7.32;100.00;94689.00;2235403;56;26555;-59
2021/05/07 10:19:17;;;;;;;1.57;1.10;;;6.60;99.90;;;7.44;100.00;94692.00;2235160;56;26651;-59
2021/05/07 10:22:08;;;;;;;1.30;0.90;;;6.70;99.90;;;7.57;100.00;94692.00;2458105;55;26101;-60
2021/05/07 10:24:54;;;;;;;1.73;1.17;;;6.40;99.90;;;6.98;100.00;94695.00;2235399;56;26603;-59
2021/05/07 10:27:46;;;;;;;1.80;1.00;;;6.40;99.90;;;7.17;100.00;94698.00;2458052;55;26580;-59
2021/05/07 10:30:33;;;;;;;1.20;0.90;;;6.70;99.90;;;7.42;100.00;94691.00;2457967;55;26195;-60
2021/05/07 10:33:20;;;;;;;1.20;1.10;;;6.80;99.90;;;7.59;100.00;94697.00;2235500;56;26243;-59
2021/05/07 10:36:07;;;;;;;3.53;1.20;;;6.70;99.90;;;7.43;100.00;94701.00;2234994;56;26668;-59
2021/05/07 10:38:53;;;;;;;2.63;2.20;;;7.00;99.90;;;7.85;100.00;94696.00;2458457;55;26612;-59
2021/05/07 10:41:40;;;;;;;2.47;1.97;;;6.80;99.90;;;7.38;100.00;94697.00;2234992;56;26239;-59
2021/05/07 10:44:28;;;;;;;1.10;1.00;;;6.80;99.90;;;7.48;100.00;94708.00;2458364;55;26711;-59
2021/05/07 10:47:16;;;;;;;1.57;1.00;;;6.70;99.90;;;7.45;100.00;94706.00;2235336;56;26536;-59
2021/05/07 10:50:14;;;;;;;4.90;4.40;;;6.90;99.90;;;7.62;100.00;94705.00;2457704;55;26252;-59
2021/05/07 10:53:00;;;;;;;2.50;2.20;;;7.20;99.90;;;8.22;100.00;94708.00;2458124;55;26557;-60
2021/05/07 10:55:46;;;;;;;1.00;0.90;;;7.20;99.90;;;8.27;100.00;94698.00;2235366;56;26090;-62
2021/05/07 10:58:37;;;;;;;1.53;1.17;;;7.30;99.90;;;8.31;100.00;94715.00;2235395;56;26206;-59
2021/05/07 11:01:27;;;;;;;1.40;1.10;;;7.20;99.90;;;7.80;100.00;94732.00;2235576;56;26118;-59
2021/05/07 11:04:15;;;;;;;1.03;0.90;;;6.60;99.90;;;6.96;100.00;94735.00;2458238;55;26094;-59
2021/05/07 11:07:03;;;;;;;1.20;1.10;;;6.30;99.90;;;6.67;100.00;94737.00;2235559;56;26148;-59
2021/05/07 11:10:01;;;;;;;0.90;0.83;;;6.10;99.90;;;6.51;100.00;94744.00;2235474;56;26118;-59
2021/05/07 11:12:47;;;;;;;1.17;0.90;;;6.00;99.90;;;6.40;100.00;94755.00;2235554;56;26098;-59
2021/05/07 11:15:34;;;;;;;2.17;1.43;;;5.90;99.90;;;6.18;100.00;94760.00;2458517;55;26102;-60
2021/05/07 11:18:29;;;;;;;0.70;0.70;;;6.20;99.90;;;6.60;100.00;94759.00;2235961;56;26159;-59
2021/05/07 11:21:16;;;;;;;1.70;1.20;;;6.10;99.90;;;6.52;100.00;94757.00;2457647;55;26185;-60
2021/05/07 11:24:13;;;;;;;1.13;1.00;;;6.30;99.90;;;6.83;100.00;94766.00;2235772;56;26154;-59
2021/05/07 11:27:02;;;;;;;1.00;0.90;;;6.10;99.90;;;6.44;100.00;94770.00;2458095;55;26698;-59
2021/05/07 11:29:49;;;;;;;2.50;0.87;;;6.00;99.90;;;6.46;100.00;94781.00;2235259;56;26706;-59
2021/05/07 11:32:36;;;;;;;1.30;0.97;;;6.00;99.90;;;6.34;100.00;94790.00;2458537;55;26106;-60
2021/05/07 11:35:22;;;;;;;1.27;1.00;;;6.00;99.90;;;6.42;100.00;94790.00;2235440;56;26114;-59
2021/05/07 11:38:08;;;;;;;1.07;0.97;;;6.00;99.90;;;6.41;100.00;94799.00;2458486;55;26162;-60
2021/05/07 11:40:55;;;;;;;1.97;1.07;;;6.00;99.90;;;6.42;100.00;94801.00;2235614;56;26098;-60
2021/05/07 11:43:41;;;;;;;1.30;1.20;;;5.80;99.90;;;6.27;100.00;94816.00;2235470;56;26182;-59
2021/05/07 11:46:27;;;;;;;1.70;1.20;;;5.90;99.90;;;6.34;100.00;94826.00;2458227;55;26175;-59
2021/05/07 11:49:19;;;;;;;1.80;1.50;;;5.90;99.90;;;6.34;100.00;94834.00;2234227;56;26158;-59
2021/05/07 11:52:07;;;;;;;2.47;1.83;;;6.00;99.90;;;6.39;100.00;94832.00;2458321;55;26294;-59
2021/05/07 11:54:53;;;;;;;1.47;1.20;;;6.20;99.90;;;6.70;100.00;94829.00;2234951;56;26576;-60